Time;durP1;ratioP1;P1;durP2;ratioP2;P2;SDS_P1;SDS_P2;PMS_P1;PMS_P2;Temp;Humidity;BMP_temperature;BMP_pressure;BME280_temperature;BME280_humidity;BME280_pressure;Samples;Min_cycle;Max_cycle;Signal;HPM_P1;HPM_P2
2021/09/01 00:01:12;;;;;;;26.98;6.13;;;15.70;99.90;;;;;;5023686;28;20111;-79
2021/09/01 00:03:38;;;;;;;24.15;5.43;;;15.70;99.90;;;;;;5001735;28;20112;-79
2021/09/01 00:06:05;;;;;;;21.58;5.00;;;15.70;99.90;;;;;;5019175;28;20140;-80
2021/09/01 00:08:31;;;;;;;23.85;5.03;;;15.70;99.90;;;;;;5002288;28;20083;-80
2021/09/01 00:10:57;;;;;;;21.27;5.00;;;15.70;99.90;;;;;;5000331;28;20357;-80
2021/09/01 00:13:23;;;;;;;28.20;5.63;;;15.60;99.90;;;;;;5022542;28;20045;-79
2021/09/01 00:15:49;;;;;;;24.13;5.43;;;15.70;99.90;;;;;;5025399;28;20052;-79
2021/09/01 00:18:15;;;;;;;28.98;5.13;;;15.70;99.90;;;;;;5017882;28;20053;-80
2021/09/01 00:20:41;;;;;;;22.85;5.20;;;15.70;99.90;;;;;;5008938;28;20037;-80
2021/09/01 00:23:06;;;;;;;21.92;5.43;;;15.70;99.90;;;;;;5010229;28;20480;-80
2021/09/01 00:25:32;;;;;;;17.95;5.10;;;15.70;99.90;;;;;;5007354;28;20068;-80
2021/09/01 00:27:58;;;;;;;22.38;5.72;;;15.70;99.90;;;;;;5038773;28;20156;-80
2021/09/01 00:30:23;;;;;;;23.58;5.15;;;15.70;99.90;;;;;;5022915;28;20511;-79
2021/09/01 00:32:49;;;;;;;19.75;5.40;;;15.70;99.90;;;;;;5021254;28;20032;-79
2021/09/01 00:35:15;;;;;;;29.48;5.93;;;15.70;99.90;;;;;;5007469;28;20059;-80
2021/09/01 00:37:40;;;;;;;27.83;5.65;;;15.80;99.90;;;;;;5027523;28;20047;-79
2021/09/01 00:40:07;;;;;;;22.10;5.10;;;15.70;99.90;;;;;;5008023;28;20467;-80
2021/09/01 00:42:37;;;;;;;24.42;6.20;;;15.70;99.90;;;;;;5006787;28;21352;-80
2021/09/01 00:45:05;;;;;;;22.88;5.65;;;15.70;99.90;;;;;;5007411;28;20052;-79
2021/09/01 00:47:30;;;;;;;24.33;5.50;;;15.70;99.90;;;;;;5038297;28;20064;-79
2021/09/01 00:49:56;;;;;;;24.83;5.03;;;15.70;99.90;;;;;;5010060;28;20045;-79
2021/09/01 00:52:22;;;;;;;14.60;5.00;;;15.70;99.90;;;;;;5034415;28;20037;-80
2021/09/01 00:54:49;;;;;;;22.95;5.25;;;15.70;99.90;;;;;;5029401;28;20040;-79
2021/09/01 00:57:16;;;;;;;20.80;5.20;;;15.70;99.90;;;;;;5025523;28;20389;-79
2021/09/01 00:59:43;;;;;;;22.02;5.70;;;15.60;99.90;;;;;;5023927;28;20049;-80
2021/09/01 01:02:09;;;;;;;21.13;5.30;;;15.60;99.90;;;;;;5029248;28;20036;-80
2021/09/01 01:04:35;;;;;;;16.00;4.53;;;15.60;99.90;;;;;;5027438;28;20364;-79
2021/09/01 01:07:06;;;;;;;26.48;5.82;;;15.60;99.90;;;;;;4993457;28;20049;-79
2021/09/01 01:09:34;;;;;;;19.38;4.85;;;15.60;99.90;;;;;;5023170;28;20042;-79
2021/09/01 01:12:04;;;;;;;18.65;5.00;;;15.60;99.90;;;;;;5044088;28;20144;-80
2021/09/01 01:14:38;;;;;;;29.42;5.30;;;15.60;99.90;;;;;;5015118;28;20037;-79
2021/09/01 01:17:06;;;;;;;22.77;5.35;;;15.60;99.90;;;;;;5008924;28;20061;-79
2021/09/01 01:19:37;;;;;;;23.25;4.82;;;15.60;99.90;;;;;;5025836;28;20041;-80
2021/09/01 01:22:03;;;;;;;21.60;4.78;;;15.70;99.90;;;;;;5026913;28;20487;-80
2021/09/01 01:24:49;;;;;;;21.42;4.72;;;15.60;99.90;;;;;;5009354;28;20064;-81
2021/09/01 01:27:32;;;;;;;21.08;4.97;;;15.60;99.90;;;;;;5025895;28;20059;-79
2021/09/01 01:30:14;;;;;;;16.77;4.40;;;15.60;99.90;;;;;;5004557;28;20041;-80
2021/09/01 01:32:42;;;;;;;22.17;4.78;;;15.60;99.90;;;;;;5011880;28;20029;-80
2021/09/01 01:35:08;;;;;;;22.08;5.43;;;15.60;99.90;;;;;;5029842;28;20032;-80
2021/09/01 01:37:34;;;;;;;22.00;4.97;;;15.60;99.90;;;;;;5011004;28;20060;-79
2021/09/01 01:40:00;;;;;;;20.60;4.70;;;15.60;99.90;;;;;;5009698;28;20045;-79
2021/09/01 01:42:26;;;;;;;20.95;4.85;;;15.60;99.90;;;;;;5025818;28;20045;-79
2021/09/01 01:44:54;;;;;;;22.15;5.03;;;15.60;99.90;;;;;;5025593;28;20125;-80
2021/09/01 01:47:20;;;;;;;20.38;5.30;;;15.60;99.90;;;;;;5024496;28;20064;-80
2021/09/01 01:49:45;;;;;;;21.00;5.25;;;15.60;99.90;;;;;;5010431;28;20119;-80
2021/09/01 01:52:11;;;;;;;20.55;5.35;;;15.60;99.90;;;;;;5041550;28;20128;-79
2021/09/01 01:54:37;;;;;;;24.92;5.55;;;15.60;99.90;;;;;;5023861;28;20452;-80
2021/09/01 01:57:03;;;;;;;15.60;4.32;;;15.60;99.90;;;;;;5023457;28;21981;-80
2021/09/01 01:59:28;;;;;;;24.35;5.22;;;15.70;99.90;;;;;;5013373;28;20048;-80
2021/09/01 02:01:54;;;;;;;22.17;5.10;;;15.60;99.90;;;;;;5024682;28;20044;-79
2021/09/01 02:04:20;;;;;;;22.33;5.10;;;15.60;99.90;;;;;;5045818;28;20041;-80
2021/09/01 02:06:45;;;;;;;20.58;5.53;;;15.60;99.90;;;;;;5023523;28;20107;-80
2021/09/01 02:09:11;;;;;;;25.33;4.85;;;15.60;99.90;;;;;;5026223;28;20144;-79
2021/09/01 02:11:37;;;;;;;21.90;5.50;;;15.50;99.90;;;;;;5041012;28;20126;-79
2021/09/01 02:14:02;;;;;;;17.73;5.03;;;15.60;99.90;;;;;;5026677;28;20051;-80
2021/09/01 02:16:28;;;;;;;18.23;5.05;;;15.60;99.90;;;;;;5025436;28;20156;-80
2021/09/01 02:18:54;;;;;;;17.27;4.85;;;15.60;99.90;;;;;;5024286;28;20471;-80
2021/09/01 02:21:20;;;;;;;19.02;4.72;;;15.60;99.90;;;;;;5025085;28;20055;-80
2021/09/01 02:23:46;;;;;;;28.23;4.93;;;15.60;99.90;;;;;;5006106;28;20033;-79
2021/09/01 02:26:11;;;;;;;17.35;5.00;;;15.60;99.90;;;;;;5010577;28;20044;-80
2021/09/01 02:28:37;;;;;;;21.77;4.93;;;15.60;99.90;;;;;;5024534;28;20029;-80
2021/09/01 02:31:03;;;;;;;18.48;4.75;;;15.50;99.90;;;;;;5008231;28;20140;-80
2021/09/01 02:33:28;;;;;;;20.27;5.10;;;15.60;99.90;;;;;;5022330;28;21328;-79
2021/09/01 02:35:54;;;;;;;22.08;5.15;;;15.50;99.90;;;;;;5020704;28;20048;-80
2021/09/01 02:38:19;;;;;;;16.77;4.38;;;15.50;99.90;;;;;;5042990;28;20072;-80
2021/09/01 02:40:45;;;;;;;24.60;5.07;;;15.60;99.90;;;;;;5044218;28;20036;-80
2021/09/01 02:43:11;;;;;;;25.83;5.20;;;15.50;99.90;;;;;;5025154;28;20063;-80
2021/09/01 02:45:36;;;;;;;21.00;4.95;;;15.50;99.90;;;;;;5009704;28;20472;-80
2021/09/01 02:48:02;;;;;;;19.05;4.93;;;15.60;99.90;;;;;;5022197;28;20065;-79
2021/09/01 02:50:28;;;;;;;18.48;5.13;;;15.60;99.90;;;;;;5023295;28;20453;-80
2021/09/01 02:52:54;;;;;;;16.90;4.93;;;15.60;99.90;;;;;;5026311;28;20045;-80
2021/09/01 02:55:19;;;;;;;21.80;5.72;;;15.60;99.90;;;;;;5025815;28;20061;-80
2021/09/01 02:57:46;;;;;;;17.73;4.75;;;15.60;99.90;;;;;;5027441;28;20049;-80
2021/09/01 03:00:12;;;;;;;17.67;5.18;;;15.60;99.90;;;;;;5010610;28;20042;-80
2021/09/01 03:02:38;;;;;;;21.52;5.40;;;15.50;99.90;;;;;;5020740;28;20037;-80
2021/09/01 03:05:04;;;;;;;19.65;4.97;;;15.50;99.90;;;;;;5022848;28;20037;-80
2021/09/01 03:07:30;;;;;;;29.67;6.18;;;15.50;99.90;;;;;;5008308;28;20048;-80
2021/09/01 03:09:57;;;;;;;24.33;5.00;;;15.60;99.90;;;;;;5009588;28;20056;-80
2021/09/01 03:12:23;;;;;;;20.77;4.55;;;15.50;99.90;;;;;;5025892;28;20064;-79
2021/09/01 03:14:48;;;;;;;24.58;5.20;;;15.50;99.90;;;;;;5003380;28;20463;-80
2021/09/01 03:17:14;;;;;;;25.15;5.43;;;15.50;99.90;;;;;;5022914;28;20132;-79
2021/09/01 03:19:40;;;;;;;17.95;4.60;;;15.60;99.90;;;;;;5018481;28;20045;-79
2021/09/01 03:22:05;;;;;;;19.23;4.82;;;15.50;99.90;;;;;;5022404;28;20098;-80
2021/09/01 03:24:31;;;;;;;20.58;4.88;;;15.60;99.90;;;;;;5026500;28;20044;-80
2021/09/01 03:26:56;;;;;;;17.10;4.90;;;15.60;99.90;;;;;;5021312;28;20380;-80
2021/09/01 03:29:22;;;;;;;24.35;4.82;;;15.50;99.90;;;;;;5023673;28;20108;-80
2021/09/01 03:31:48;;;;;;;15.05;5.05;;;15.50;99.90;;;;;;5020649;28;20401;-80
2021/09/01 03:34:13;;;;;;;18.77;4.80;;;15.50;99.90;;;;;;5014319;28;20493;-80
2021/09/01 03:36:39;;;;;;;18.42;5.03;;;15.50;99.90;;;;;;5035994;28;20045;-80
2021/09/01 03:39:05;;;;;;;21.33;4.95;;;15.50;99.90;;;;;;5025352;28;20135;-80
2021/09/01 03:41:31;;;;;;;20.45;5.00;;;15.50;99.90;;;;;;5009374;28;20032;-80
2021/09/01 03:43:56;;;;;;;18.90;5.65;;;15.50;99.90;;;;;;5021561;28;20132;-80
2021/09/01 03:46:22;;;;;;;15.85;5.00;;;15.50;99.90;;;;;;5040739;28;20049;-80
2021/09/01 03:48:48;;;;;;;21.50;5.28;;;15.60;99.90;;;;;;5025076;28;20064;-80
2021/09/01 03:51:13;;;;;;;20.25;5.22;;;15.60;99.90;;;;;;5019393;28;20037;-79
2021/09/01 03:53:39;;;;;;;26.77;5.80;;;15.60;99.90;;;;;;5025412;28;20060;-80
2021/09/01 03:56:05;;;;;;;20.83;5.72;;;15.50;99.90;;;;;;5026264;28;20429;-80
2021/09/01 03:58:49;;;;;;;21.50;5.22;;;15.50;99.90;;;;;;5025783;28;20499;-80
2021/09/01 04:01:14;;;;;;;20.15;5.13;;;15.50;99.90;;;;;;5020064;28;20080;-80
2021/09/01 04:03:40;;;;;;;19.88;5.53;;;15.50;99.90;;;;;;5009252;28;20072;-80
2021/09/01 04:06:05;;;;;;;21.02;4.72;;;15.60;99.90;;;;;;5025056;28;20036;-80
2021/09/01 04:08:31;;;;;;;19.92;4.70;;;15.50;99.90;;;;;;5023912;28;20049;-80
2021/09/01 04:10:57;;;;;;;16.23;4.93;;;15.50;99.90;;;;;;5007602;28;20137;-80
2021/09/01 04:13:23;;;;;;;21.27;5.35;;;15.50;99.90;;;;;;5045581;28;20037;-80
2021/09/01 04:15:48;;;;;;;16.63;4.90;;;15.60;99.90;;;;;;4998791;28;20057;-80
2021/09/01 04:18:14;;;;;;;15.85;5.00;;;15.50;99.90;;;;;;5003026;28;20041;-80
2021/09/01 04:20:40;;;;;;;22.85;5.25;;;15.50;99.90;;;;;;5002010;28;20042;-80
2021/09/01 04:23:05;;;;;;;18.48;5.22;;;15.50;99.90;;;;;;5021904;28;20366;-80
2021/09/01 04:25:31;;;;;;;14.25;4.28;;;15.50;99.90;;;;;;5012529;28;20080;-80
2021/09/01 04:27:57;;;;;;;19.70;4.70;;;15.50;99.90;;;;;;5008153;28;20110;-80
2021/09/01 04:30:22;;;;;;;19.00;4.65;;;15.60;99.90;;;;;;5027244;28;20044;-80
2021/09/01 04:32:48;;;;;;;20.60;4.95;;;15.60;99.90;;;;;;5004472;28;20029;-80
2021/09/01 04:35:14;;;;;;;16.13;4.90;;;15.50;99.90;;;;;;5022579;28;20036;-79
2021/09/01 04:37:39;;;;;;;17.02;4.60;;;15.50;99.90;;;;;;5021346;28;20046;-80
2021/09/01 04:40:06;;;;;;;17.75;4.95;;;15.50;99.90;;;;;;4997775;28;20034;-80
2021/09/01 04:42:31;;;;;;;19.38;5.30;;;15.50;99.90;;;;;;5011041;28;20045;-80
2021/09/01 04:44:57;;;;;;;20.88;4.88;;;15.50;99.90;;;;;;5003887;28;20464;-80
2021/09/01 04:47:23;;;;;;;17.05;4.63;;;15.60;99.90;;;;;;5025830;28;20079;-79
2021/09/01 04:49:48;;;;;;;17.98;5.00;;;15.50;99.90;;;;;;5007034;28;20040;-78
2021/09/01 04:52:14;;;;;;;11.32;3.90;;;15.60;99.90;;;;;;5006107;28;20054;-80
2021/09/01 04:54:40;;;;;;;19.98;4.95;;;15.60;99.90;;;;;;5004144;28;20095;-78
2021/09/01 04:57:05;;;;;;;22.42;4.45;;;15.70;99.90;;;;;;5004675;28;20097;-79
2021/09/01 04:59:31;;;;;;;14.38;4.18;;;15.90;99.90;;;;;;5020755;28;20080;-79
2021/09/01 05:01:57;;;;;;;11.93;4.63;;;16.00;99.90;;;;;;5001528;28;20042;-82
2021/09/01 05:04:22;;;;;;;18.90;4.93;;;16.20;99.90;;;;;;5024462;28;20128;-82
2021/09/01 05:06:48;;;;;;;17.65;4.55;;;16.20;99.90;;;;;;5020076;28;20443;-80
2021/09/01 05:09:13;;;;;;;17.50;4.70;;;16.20;99.90;;;;;;5020374;28;20033;-78
2021/09/01 05:11:39;;;;;;;13.57;4.25;;;16.30;99.90;;;;;;5018114;28;20042;-80
2021/09/01 05:14:04;;;;;;;12.25;4.20;;;16.30;99.90;;;;;;5024986;28;20278;-79
2021/09/01 05:16:30;;;;;;;14.23;3.72;;;16.40;99.90;;;;;;5008252;28;20072;-79
2021/09/01 05:18:56;;;;;;;18.98;4.88;;;16.60;99.90;;;;;;5003756;28;20045;-79
2021/09/01 05:21:25;;;;;;;17.65;4.50;;;16.50;99.90;;;;;;5038802;28;20453;-77
2021/09/01 05:23:54;;;;;;;13.93;4.18;;;16.60;99.90;;;;;;5027423;28;20044;-78
2021/09/01 05:26:25;;;;;;;13.45;4.47;;;16.60;99.90;;;;;;5025128;28;20045;-78
2021/09/01 05:28:53;;;;;;;11.68;4.38;;;16.70;99.90;;;;;;5025722;28;20049;-78
2021/09/01 05:31:20;;;;;;;11.85;4.20;;;16.80;99.90;;;;;;5028593;28;20064;-77
2021/09/01 05:33:50;;;;;;;16.55;4.68;;;16.80;99.90;;;;;;5026161;28;20041;-78
2021/09/01 05:36:17;;;;;;;17.98;4.95;;;16.90;99.90;;;;;;5023726;28;20091;-78
2021/09/01 05:38:45;;;;;;;15.50;4.40;;;16.90;99.90;;;;;;5024364;28;20068;-78
2021/09/01 05:41:12;;;;;;;15.45;4.70;;;16.80;99.90;;;;;;5012315;28;20133;-78
2021/09/01 05:43:39;;;;;;;14.30;4.20;;;16.80;99.90;;;;;;5023242;28;20041;-78
2021/09/01 05:46:05;;;;;;;24.05;5.30;;;16.80;99.90;;;;;;5023602;28;20041;-81
2021/09/01 05:48:32;;;;;;;22.88;5.10;;;16.80;99.90;;;;;;5021628;28;20130;-78
2021/09/01 05:50:58;;;;;;;21.27;4.97;;;16.80;99.90;;;;;;5029643;28;20044;-77
2021/09/01 05:53:24;;;;;;;19.27;5.20;;;16.70;99.90;;;;;;5021801;28;20546;-77
2021/09/01 05:55:51;;;;;;;21.35;5.35;;;16.70;99.90;;;;;;5026563;28;20037;-79
2021/09/01 05:58:19;;;;;;;15.48;4.28;;;16.60;99.90;;;;;;5030172;28;20091;-79
2021/09/01 06:00:54;;;;;;;23.48;4.80;;;16.70;99.90;;;;;;5009046;28;20049;-79
2021/09/01 06:03:36;;;;;;;16.88;4.85;;;16.70;99.90;;;;;;5009326;28;20495;-78
2021/09/01 06:06:03;;;;;;;20.70;5.47;;;16.80;99.90;;;;;;5026765;28;20096;-79
2021/09/01 06:08:34;;;;;;;16.75;4.72;;;16.70;99.90;;;;;;5028449;28;20045;-79
2021/09/01 06:11:05;;;;;;;14.93;4.55;;;16.70;99.90;;;;;;5025257;28;20403;-80
2021/09/01 06:13:31;;;;;;;22.83;5.18;;;16.80;99.90;;;;;;5043556;28;20048;-79
2021/09/01 06:15:57;;;;;;;29.75;6.20;;;16.70;99.90;;;;;;5018343;28;20468;-79
2021/09/01 06:18:24;;;;;;;12.60;4.75;;;16.70;99.90;;;;;;5039799;28;20053;-79
2021/09/01 06:20:50;;;;;;;26.38;5.22;;;16.80;99.90;;;;;;5021851;28;20493;-79
2021/09/01 06:23:15;;;;;;;21.35;4.75;;;16.90;99.90;;;;;;5024443;28;20041;-79
2021/09/01 06:25:41;;;;;;;18.63;4.25;;;16.90;99.90;;;;;;5010432;28;20045;-79
2021/09/01 06:28:08;;;;;;;20.73;5.13;;;16.90;99.90;;;;;;5036498;28;20049;-77
2021/09/01 06:30:35;;;;;;;26.05;5.80;;;16.90;99.90;;;;;;5020389;28;20042;-80
2021/09/01 06:33:01;;;;;;;25.27;5.75;;;16.90;99.90;;;;;;5018895;28;20049;-79
2021/09/01 06:35:27;;;;;;;13.90;4.78;;;16.80;99.90;;;;;;5003448;28;20045;-80
2021/09/01 06:37:53;;;;;;;18.55;5.00;;;17.00;99.90;;;;;;5019723;28;20106;-80
2021/09/01 06:40:20;;;;;;;24.38;5.53;;;17.00;99.90;;;;;;5005266;28;20141;-80
2021/09/01 06:42:46;;;;;;;13.05;4.20;;;17.00;99.90;;;;;;5005383;28;20049;-79
2021/09/01 06:45:12;;;;;;;17.92;5.53;;;17.10;99.90;;;;;;5018822;28;20511;-82
2021/09/01 06:47:58;;;;;;;24.70;5.18;;;17.20;99.90;;;;;;5022485;28;20049;-81
2021/09/01 06:50:26;;;;;;;16.10;4.45;;;17.20;99.90;;;;;;5034325;28;20049;-80
2021/09/01 06:52:55;;;;;;;21.60;5.88;;;17.20;99.90;;;;;;5022913;28;20045;-82
2021/09/01 06:55:24;;;;;;;28.17;6.15;;;17.10;99.90;;;;;;5013542;28;20392;-82
2021/09/01 06:57:50;;;;;;;21.73;5.88;;;17.10;99.90;;;;;;5024388;28;20539;-82
2021/09/01 07:00:19;;;;;;;21.70;5.55;;;17.10;99.90;;;;;;5023707;28;20203;-83
2021/09/01 07:02:45;;;;;;;23.25;6.00;;;17.10;99.90;;;;;;5006828;28;20145;-81
2021/09/01 07:05:12;;;;;;;21.05;5.63;;;17.10;99.90;;;;;;5019788;28;20042;-81
2021/09/01 07:07:43;;;;;;;22.15;6.00;;;17.10;99.90;;;;;;5027877;28;20536;-82
2021/09/01 07:10:09;;;;;;;24.15;5.13;;;17.20;99.90;;;;;;5026989;28;20056;-81
2021/09/01 07:12:35;;;;;;;28.52;5.97;;;17.10;99.90;;;;;;5011529;28;20508;-82
2021/09/01 07:15:01;;;;;;;30.33;5.38;;;17.20;99.90;;;;;;5019445;28;20041;-83
2021/09/01 07:17:27;;;;;;;27.75;6.57;;;17.20;99.90;;;;;;5025123;28;20057;-82
2021/09/01 07:19:53;;;;;;;22.17;5.50;;;17.20;99.90;;;;;;5024211;28;20135;-82
2021/09/01 07:22:18;;;;;;;24.23;5.15;;;17.20;99.90;;;;;;5000993;28;20124;-82
2021/09/01 07:24:44;;;;;;;24.27;5.43;;;17.20;99.90;;;;;;5001347;28;20527;-81
2021/09/01 07:27:10;;;;;;;23.98;5.15;;;17.20;99.90;;;;;;5011932;28;20034;-81
2021/09/01 07:29:35;;;;;;;19.42;5.15;;;17.30;99.90;;;;;;5010736;28;20080;-81
2021/09/01 07:32:01;;;;;;;23.10;4.85;;;17.20;99.90;;;;;;5029858;28;20133;-81
2021/09/01 07:34:27;;;;;;;17.23;5.07;;;17.20;99.90;;;;;;5019938;28;20080;-82
2021/09/01 07:36:53;;;;;;;18.58;5.80;;;17.20;99.90;;;;;;5019748;28;20398;-82
2021/09/01 07:39:18;;;;;;;20.60;5.60;;;17.20;99.90;;;;;;5022695;28;20151;-81
2021/09/01 07:41:44;;;;;;;18.45;5.15;;;17.20;99.90;;;;;;5023606;28;20033;-84
2021/09/01 07:44:10;;;;;;;23.15;6.30;;;17.20;99.90;;;;;;5024659;28;20048;-79
2021/09/01 07:46:35;;;;;;;20.48;5.22;;;17.10;99.90;;;;;;5018375;28;20090;-82
2021/09/01 07:49:01;;;;;;;16.80;4.88;;;17.10;99.90;;;;;;5019847;28;20412;-82
2021/09/01 07:51:30;;;;;;;26.00;5.93;;;17.30;99.90;;;;;;5003074;28;20067;-82
2021/09/01 07:53:56;;;;;;;18.80;5.28;;;17.30;99.90;;;;;;5005449;28;20365;-78
2021/09/01 07:56:21;;;;;;;18.02;5.03;;;17.30;99.90;;;;;;5004734;28;20053;-79
2021/09/01 07:58:47;;;;;;;19.67;5.05;;;17.30;99.90;;;;;;5020927;28;20037;-81
2021/09/01 08:01:13;;;;;;;17.52;5.32;;;17.40;99.90;;;;;;5027837;28;20038;-81
2021/09/01 08:03:40;;;;;;;19.75;4.57;;;17.50;99.90;;;;;;5025384;28;20392;-82
2021/09/01 08:06:07;;;;;;;20.10;6.05;;;17.40;99.90;;;;;;5001130;28;20397;-81
2021/09/01 08:08:33;;;;;;;29.33;5.43;;;17.50;99.90;;;;;;5022889;28;20052;-83
2021/09/01 08:10:59;;;;;;;21.48;5.30;;;17.50;99.90;;;;;;5029390;28;20099;-79
2021/09/01 08:13:25;;;;;;;22.52;4.97;;;17.60;99.90;;;;;;5005303;28;20041;-79
2021/09/01 08:15:51;;;;;;;19.05;5.25;;;17.60;99.90;;;;;;5008200;28;20054;-81
2021/09/01 08:18:17;;;;;;;18.65;5.07;;;17.70;99.90;;;;;;5009042;28;20049;-84
2021/09/01 08:20:43;;;;;;;20.83;4.63;;;17.70;99.90;;;;;;5007413;28;20053;-83
2021/09/01 08:23:09;;;;;;;17.42;4.78;;;17.70;99.90;;;;;;5024655;28;20048;-83
2021/09/01 08:25:35;;;;;;;24.48;4.95;;;17.70;99.90;;;;;;5025052;28;20654;-81
2021/09/01 08:28:01;;;;;;;22.65;5.50;;;17.70;99.90;;;;;;5006300;28;20137;-81
2021/09/01 08:30:26;;;;;;;17.23;4.68;;;17.70;99.90;;;;;;5026865;28;20033;-82
2021/09/01 08:32:52;;;;;;;16.20;5.18;;;17.70;99.90;;;;;;5025167;28;20475;-81
2021/09/01 08:35:18;;;;;;;20.25;4.75;;;17.80;99.90;;;;;;5022105;28;20388;-80
2021/09/01 08:37:49;;;;;;;20.40;5.00;;;17.80;99.90;;;;;;5007191;28;20128;-82
2021/09/01 08:40:16;;;;;;;21.70;4.13;;;17.90;99.90;;;;;;5026827;28;20041;-82
2021/09/01 08:42:43;;;;;;;19.90;4.50;;;17.90;99.90;;;;;;5026674;28;20077;-82
2021/09/01 08:45:09;;;;;;;21.50;4.45;;;17.90;99.90;;;;;;5024172;28;21692;-82
2021/09/01 08:47:39;;;;;;;17.50;4.57;;;17.90;99.90;;;;;;5023302;28;20378;-82
2021/09/01 08:50:06;;;;;;;20.35;4.57;;;17.80;99.90;;;;;;5025813;28;20057;-82
2021/09/01 08:52:32;;;;;;;16.55;4.60;;;17.90;99.90;;;;;;5019915;28;20050;-82
2021/09/01 08:54:57;;;;;;;14.55;4.07;;;17.90;99.90;;;;;;5019530;28;20051;-81
2021/09/01 08:57:23;;;;;;;22.15;5.47;;;17.90;99.90;;;;;;5024371;28;20392;-82
2021/09/01 08:59:51;;;;;;;21.92;4.50;;;17.90;99.90;;;;;;5030017;28;20484;-81
2021/09/01 09:02:27;;;;;;;15.57;4.05;;;18.00;99.90;;;;;;5021539;28;20462;-82
2021/09/01 09:04:54;;;;;;;19.08;4.45;;;18.10;99.90;;;;;;5028195;28;20138;-82
2021/09/01 09:07:23;;;;;;;18.13;4.20;;;18.10;99.90;;;;;;5014974;28;20132;-81
2021/09/01 09:09:50;;;;;;;16.63;4.45;;;18.10;99.90;;;;;;5030269;28;20048;-82
2021/09/01 09:12:16;;;;;;;19.85;4.63;;;18.20;99.90;;;;;;5018051;28;20504;-82
2021/09/01 09:14:48;;;;;;;16.65;4.38;;;18.30;99.90;;;;;;5018919;28;20449;-82
2021/09/01 09:17:19;;;;;;;17.67;3.92;;;18.40;99.90;;;;;;5031127;28;20079;-82
2021/09/01 09:19:56;;;;;;;16.38;4.20;;;18.30;99.90;;;;;;5006458;28;20056;-82
2021/09/01 09:22:24;;;;;;;14.07;4.13;;;18.40;99.90;;;;;;5043943;28;20116;-81
2021/09/01 09:25:10;;;;;;;13.90;3.85;;;18.40;99.90;;;;;;5048644;28;20052;-82
2021/09/01 09:27:57;;;;;;;20.42;4.30;;;18.40;99.90;;;;;;5040043;28;20452;-82
2021/09/01 09:30:42;;;;;;;14.73;4.10;;;18.40;99.90;;;;;;5049247;28;20044;-82
2021/09/01 09:33:11;;;;;;;17.38;4.10;;;18.50;99.90;;;;;;5008715;28;20472;-81
2021/09/01 09:35:55;;;;;;;15.07;4.97;;;18.40;99.90;;;;;;5045314;28;20383;-82
2021/09/01 09:38:42;;;;;;;15.98;4.40;;;18.50;99.90;;;;;;5048845;28;20049;-82
2021/09/01 09:41:24;;;;;;;21.65;4.25;;;18.50;99.90;;;;;;4999023;28;20053;-82
2021/09/01 09:43:55;;;;;;;17.33;4.28;;;18.60;99.90;;;;;;5030162;28;20056;-81
2021/09/01 09:46:21;;;;;;;16.55;4.00;;;18.70;99.90;;;;;;5043168;28;20395;-82
2021/09/01 09:48:48;;;;;;;13.13;4.68;;;18.80;99.90;;;;;;5023412;28;20051;-82
2021/09/01 09:51:15;;;;;;;19.55;4.57;;;18.80;99.90;;;;;;5029828;28;20066;-81
2021/09/01 09:53:49;;;;;;;18.33;4.40;;;18.90;99.90;;;;;;5034837;28;20539;-82
2021/09/01 09:56:15;;;;;;;13.00;4.05;;;18.90;99.90;;;;;;5025353;28;20057;-82
2021/09/01 09:58:46;;;;;;;15.80;4.13;;;19.00;99.90;;;;;;5025026;28;20072;-82
2021/09/01 10:01:14;;;;;;;15.48;3.80;;;19.00;99.90;;;;;;5008109;28;20215;-82
2021/09/01 10:03:40;;;;;;;12.70;3.92;;;18.90;99.90;;;;;;5041005;28;20025;-82
2021/09/01 10:06:08;;;;;;;16.75;4.55;;;19.00;99.90;;;;;;5048345;28;20037;-81
2021/09/01 10:08:36;;;;;;;16.55;4.00;;;19.00;99.90;;;;;;5011424;28;20460;-82
2021/09/01 10:11:05;;;;;;;12.82;3.92;;;18.90;99.90;;;;;;5029233;28;20485;-82
2021/09/01 10:13:31;;;;;;;15.73;4.35;;;18.80;99.90;;;;;;5026062;28;20029;-82
2021/09/01 10:16:10;;;;;;;16.10;4.13;;;18.80;99.90;;;;;;5050401;28;20048;-82
2021/09/01 10:18:39;;;;;;;12.80;3.47;;;18.70;99.90;;;;;;5021754;28;20114;-82
2021/09/01 10:21:07;;;;;;;18.35;4.22;;;18.50;99.90;;;;;;5007470;28;20064;-83
2021/09/01 10:23:44;;;;;;;13.98;3.95;;;18.60;99.90;;;;;;5024582;28;20033;-81
2021/09/01 10:26:31;;;;;;;14.18;3.88;;;18.60;99.90;;;;;;5023423;28;20069;-82
2021/09/01 10:28:59;;;;;;;12.68;3.78;;;18.60;99.90;;;;;;5041286;28;20057;-82
2021/09/01 10:31:28;;;;;;;15.35;4.50;;;18.70;99.90;;;;;;5039970;28;20045;-82
2021/09/01 10:34:03;;;;;;;10.77;3.25;;;18.70;99.90;;;;;;5017236;28;20132;-82
2021/09/01 10:36:28;;;;;;;11.18;3.72;;;18.70;99.90;;;;;;5021472;28;20625;-82
2021/09/01 10:38:56;;;;;;;16.77;4.22;;;18.90;99.90;;;;;;5031564;28;20064;-82
2021/09/01 10:41:30;;;;;;;12.95;3.53;;;18.90;99.90;;;;;;5021849;28;20044;-82
2021/09/01 10:44:42;;;;;;;17.27;4.05;;;19.10;99.90;;;;;;5006752;28;20088;-82
2021/09/01 10:47:08;;;;;;;12.77;3.40;;;19.10;99.90;;;;;;4970511;28;20413;-82
2021/09/01 10:49:55;;;;;;;20.98;3.83;;;19.20;99.90;;;;;;4952491;28;20073;-82
2021/09/01 10:52:21;;;;;;;14.60;3.80;;;19.00;99.90;;;;;;4928539;28;20688;-81
2021/09/01 10:54:49;;;;;;;12.95;3.45;;;19.20;99.90;;;;;;4929402;28;20158;-82
2021/09/01 10:57:27;;;;;;;13.15;4.10;;;19.40;99.90;;;;;;4933062;28;20071;-82
2021/09/01 10:59:57;;;;;;;11.15;3.30;;;19.50;99.90;;;;;;4951162;28;20065;-81
2021/09/01 11:02:23;;;;;;;15.25;3.80;;;19.60;99.90;;;;;;4923967;28;20051;-81
2021/09/01 11:04:58;;;;;;;12.05;3.40;;;19.60;99.90;;;;;;4937012;28;20089;-80
2021/09/01 11:07:31;;;;;;;12.18;3.58;;;19.60;99.90;;;;;;4931104;29;20463;-81
2021/09/01 11:10:04;;;;;;;8.65;3.17;;;19.40;99.90;;;;;;4950781;28;20061;-81
2021/09/01 11:12:34;;;;;;;15.45;3.78;;;19.40;99.90;;;;;;4949005;28;20552;-81
2021/09/01 11:14:59;;;;;;;11.60;3.30;;;19.30;99.90;;;;;;4966497;28;20039;-81
2021/09/01 11:17:27;;;;;;;11.82;3.47;;;19.30;99.90;;;;;;4946756;28;20039;-80
2021/09/01 11:20:00;;;;;;;11.25;3.25;;;19.30;99.90;;;;;;4951567;28;20398;-81
2021/09/01 11:22:29;;;;;;;14.73;3.72;;;19.30;99.90;;;;;;4952816;28;20050;-81
2021/09/01 11:25:26;;;;;;;8.52;3.70;;;19.30;99.90;;;;;;5025462;28;20059;-81
2021/09/01 11:27:57;;;;;;;11.15;3.60;;;19.30;99.90;;;;;;5008198;28;20052;-81
2021/09/01 11:30:31;;;;;;;15.77;3.78;;;19.40;99.90;;;;;;5023454;28;20448;-81
2021/09/01 11:32:58;;;;;;;15.03;3.60;;;19.30;99.90;;;;;;5028203;28;20488;-81
2021/09/01 11:35:25;;;;;;;11.60;3.70;;;19.30;99.90;;;;;;5010187;28;20307;-81
2021/09/01 11:38:06;;;;;;;11.63;3.42;;;19.30;99.90;;;;;;5022976;28;20477;-81
2021/09/01 11:40:32;;;;;;;10.35;3.30;;;19.20;99.90;;;;;;5007106;28;20155;-81
2021/09/01 11:42:58;;;;;;;15.68;3.70;;;19.20;99.90;;;;;;5009692;28;20143;-81
2021/09/01 11:45:47;;;;;;;15.23;4.40;;;19.30;99.90;;;;;;5007611;28;20202;-81
2021/09/01 11:48:12;;;;;;;13.73;4.20;;;19.20;99.90;;;;;;5019178;28;20041;-82
2021/09/01 11:50:45;;;;;;;12.80;4.00;;;19.10;99.90;;;;;;5027752;28;20105;-86
2021/09/01 11:53:16;;;;;;;15.85;4.13;;;19.10;99.90;;;;;;5016419;28;20155;-83
2021/09/01 11:55:43;;;;;;;11.88;3.28;;;19.20;99.90;;;;;;5011485;28;20357;-81
2021/09/01 12:01:58;;;;;;;18.95;4.00;;;19.10;99.90;;;;;;5044634;28;20064;-83
2021/09/01 12:04:25;;;;;;;15.05;3.88;;;19.00;99.90;;;;;;5009200;28;20073;-83
2021/09/01 12:06:55;;;;;;;16.75;4.30;;;18.90;99.90;;;;;;5006963;28;21489;-83
2021/09/01 12:09:23;;;;;;;12.00;3.70;;;18.80;99.90;;;;;;5021556;28;20045;-79
2021/09/01 12:12:00;;;;;;;11.45;3.80;;;18.80;99.90;;;;;;5021392;28;20083;-79
2021/09/01 12:14:27;;;;;;;15.65;3.88;;;18.90;99.90;;;;;;5017897;28;20057;-76
2021/09/01 12:17:13;;;;;;;12.90;3.22;;;19.00;99.90;;;;;;5010756;28;20057;-76
2021/09/01 12:19:50;;;;;;;11.98;3.65;;;19.00;99.90;;;;;;5017421;28;20111;-78
2021/09/01 12:22:34;;;;;;;12.20;3.30;;;18.90;99.90;;;;;;5005956;28;20056;-78
2021/09/01 12:25:06;;;;;;;15.82;4.00;;;18.70;99.90;;;;;;5020471;28;20496;-82
2021/09/01 12:27:32;;;;;;;13.88;3.80;;;18.70;99.90;;;;;;5001032;28;20063;-78
2021/09/01 12:29:57;;;;;;;16.85;4.05;;;18.70;99.90;;;;;;5008072;28;20049;-78
2021/09/01 12:32:23;;;;;;;11.50;3.83;;;18.70;99.90;;;;;;5006556;28;20056;-83
2021/09/01 12:34:55;;;;;;;15.13;3.75;;;18.60;99.90;;;;;;5040047;28;20056;-80
2021/09/01 12:37:53;;;;;;;12.88;4.13;;;18.70;99.90;;;;;;5022054;28;20503;-80
2021/09/01 12:40:18;;;;;;;10.68;3.30;;;18.80;99.90;;;;;;4907787;28;20051;-78
2021/09/01 12:42:44;;;;;;;9.50;3.15;;;18.90;99.90;;;;;;4910883;29;20062;-78
2021/09/01 12:45:20;;;;;;;9.88;3.03;;;18.90;99.90;;;;;;4928956;29;20074;-78
2021/09/01 12:47:57;;;;;;;11.55;3.40;;;18.80;99.90;;;;;;4926880;29;20440;-78